YRMDO LRBS-LRBS
Flight info
| Callsign | YRMDO |
|---|---|
| Flight time | 0h 48m |
| Altitude | 2500 |
| Route | BSE DCT BSW STAY1/0045 |
| Aircraft | C172/L-SFG/C |
Departure
| Time | 2026-05-05 14:42 |
|---|---|
| Airport | Bucharest Băneasa Aurel Vlaicu International Airport (LRBS) |
Arrival
| Time | 2026-05-05 15:30 |
|---|---|
| Airport | Bucharest Băneasa Aurel Vlaicu International Airport (LRBS) |
| Time | Latitude | Longitude | Altitude | Speed | Heading |
|---|---|---|---|---|---|
| 2026-05-05 14:23 | 44.49657 | 26.08369 | 290 ft | 0 kts | 8° |
| 2026-05-05 14:36 | 44.49666 | 26.08370 | 305 ft | 5 kts | 7° |
| 2026-05-05 14:36 | 44.49678 | 26.08426 | 302 ft | 9 kts | 68° |
| 2026-05-05 14:36 | 44.49752 | 26.08451 | 302 ft | 14 kts | 17° |
| 2026-05-05 14:36 | 44.49789 | 26.08585 | 302 ft | 17 kts | 73° |
| 2026-05-05 14:37 | 44.49827 | 26.08765 | 304 ft | 21 kts | 74° |
| 2026-05-05 14:37 | 44.49872 | 26.08980 | 303 ft | 25 kts | 71° |
| 2026-05-05 14:37 | 44.49922 | 26.09222 | 302 ft | 27 kts | 73° |
| 2026-05-05 14:37 | 44.49976 | 26.09484 | 302 ft | 28 kts | 72° |
| 2026-05-05 14:38 | 44.50034 | 26.09761 | 303 ft | 31 kts | 73° |
| 2026-05-05 14:38 | 44.50095 | 26.10052 | 303 ft | 31 kts | 73° |
| 2026-05-05 14:38 | 44.50152 | 26.10327 | 303 ft | 26 kts | 73° |
| 2026-05-05 14:38 | 44.50234 | 26.10455 | 304 ft | 17 kts | 342° |
| 2026-05-05 14:39 | 44.50348 | 26.10406 | 303 ft | 15 kts | 336° |
| 2026-05-05 14:39 | 44.50337 | 26.10307 | 304 ft | 7 kts | 254° |
| 2026-05-05 14:39 | 44.50336 | 26.10302 | 304 ft | 0 kts | 252° |
| 2026-05-05 14:41 | 44.50335 | 26.10300 | 303 ft | 4 kts | 251° |
| 2026-05-05 14:41 | 44.50278 | 26.10012 | 304 ft | 57 kts | 252° |
| 2026-05-05 14:41 | 44.50121 | 26.09346 | 362 ft | 84 kts | 251° |
| 2026-05-05 14:42 | 44.49967 | 26.08631 | 712 ft | 67 kts | 250° |
| 2026-05-05 14:42 | 44.49843 | 26.08038 | 970 ft | 62 kts | 253° |
| 2026-05-05 14:42 | 44.49722 | 26.07462 | 1189 ft | 62 kts | 252° |
| 2026-05-05 14:42 | 44.49604 | 26.06896 | 1386 ft | 61 kts | 251° |
| 2026-05-05 14:43 | 44.49485 | 26.06322 | 1588 ft | 63 kts | 251° |
| 2026-05-05 14:43 | 44.49366 | 26.05743 | 1839 ft | 61 kts | 251° |
| 2026-05-05 14:43 | 44.49248 | 26.05160 | 2032 ft | 64 kts | 251° |
| 2026-05-05 14:43 | 44.49119 | 26.04525 | 2234 ft | 72 kts | 253° |
| 2026-05-05 14:44 | 44.48972 | 26.03798 | 2460 ft | 81 kts | 253° |
| 2026-05-05 14:44 | 44.48799 | 26.02970 | 2523 ft | 101 kts | 253° |
| 2026-05-05 14:44 | 44.48592 | 26.01918 | 2523 ft | 119 kts | 253° |
| 2026-05-05 14:44 | 44.48363 | 26.00770 | 2515 ft | 121 kts | 253° |
| 2026-05-05 14:45 | 44.48137 | 25.99658 | 2515 ft | 117 kts | 253° |
| 2026-05-05 14:45 | 44.47909 | 25.98562 | 2510 ft | 116 kts | 253° |
| 2026-05-05 14:45 | 44.47683 | 25.97475 | 2510 ft | 119 kts | 252° |
| 2026-05-05 14:45 | 44.47449 | 25.96356 | 2501 ft | 119 kts | 252° |
| 2026-05-05 14:46 | 44.47222 | 25.95267 | 2492 ft | 115 kts | 251° |
| 2026-05-05 14:46 | 44.46795 | 25.94332 | 2494 ft | 114 kts | 231° |
| 2026-05-05 14:46 | 44.46316 | 25.93452 | 2507 ft | 114 kts | 232° |
| 2026-05-05 14:46 | 44.45826 | 25.92553 | 2507 ft | 117 kts | 232° |
| 2026-05-05 14:47 | 44.45327 | 25.91642 | 2503 ft | 118 kts | 232° |
| 2026-05-05 14:47 | 44.44826 | 25.90730 | 2508 ft | 118 kts | 232° |
| 2026-05-05 14:47 | 44.44330 | 25.89820 | 2498 ft | 117 kts | 232° |
| 2026-05-05 14:47 | 44.44065 | 25.88784 | 2504 ft | 119 kts | 277° |
| 2026-05-05 14:48 | 44.44581 | 25.87938 | 2500 ft | 121 kts | 341° |
| 2026-05-05 14:48 | 44.45356 | 25.88182 | 2503 ft | 120 kts | 46° |
| 2026-05-05 14:48 | 44.45785 | 25.89163 | 2503 ft | 121 kts | 69° |
| 2026-05-05 14:48 | 44.46061 | 25.90259 | 2514 ft | 118 kts | 73° |
| 2026-05-05 14:49 | 44.46295 | 25.91374 | 2495 ft | 118 kts | 76° |
| 2026-05-05 14:49 | 44.46525 | 25.92476 | 2507 ft | 120 kts | 76° |
| 2026-05-05 14:49 | 44.46755 | 25.93582 | 2493 ft | 114 kts | 77° |
| 2026-05-05 14:49 | 44.46970 | 25.94608 | 2501 ft | 107 kts | 76° |
| 2026-05-05 14:50 | 44.47185 | 25.95619 | 2487 ft | 108 kts | 76° |
| 2026-05-05 14:50 | 44.47401 | 25.96617 | 2499 ft | 107 kts | 76° |
| 2026-05-05 14:50 | 44.47613 | 25.97631 | 2495 ft | 108 kts | 76° |
| 2026-05-05 14:50 | 44.47823 | 25.98628 | 2503 ft | 110 kts | 75° |
| 2026-05-05 14:51 | 44.48043 | 25.99662 | 2502 ft | 107 kts | 76° |
| 2026-05-05 14:51 | 44.48257 | 26.00665 | 2511 ft | 107 kts | 75° |
| 2026-05-05 14:51 | 44.48464 | 26.01648 | 2498 ft | 107 kts | 76° |
| 2026-05-05 14:51 | 44.48677 | 26.02657 | 2503 ft | 109 kts | 76° |
| 2026-05-05 14:52 | 44.48893 | 26.03673 | 2495 ft | 108 kts | 76° |
| 2026-05-05 14:52 | 44.49104 | 26.04682 | 2505 ft | 109 kts | 76° |
| 2026-05-05 14:52 | 44.49319 | 26.05699 | 2503 ft | 109 kts | 76° |
| 2026-05-05 14:52 | 44.49532 | 26.06709 | 2499 ft | 108 kts | 76° |
| 2026-05-05 14:53 | 44.49744 | 26.07705 | 2499 ft | 106 kts | 76° |
| 2026-05-05 14:53 | 44.49957 | 26.08718 | 2504 ft | 110 kts | 76° |
| 2026-05-05 14:53 | 44.50177 | 26.09755 | 2506 ft | 112 kts | 76° |
| 2026-05-05 14:53 | 44.50396 | 26.10807 | 2511 ft | 114 kts | 76° |
| 2026-05-05 14:54 | 44.50616 | 26.11862 | 2504 ft | 112 kts | 76° |
| 2026-05-05 14:54 | 44.50832 | 26.12887 | 2503 ft | 111 kts | 75° |
| 2026-05-05 14:54 | 44.51049 | 26.13917 | 2499 ft | 109 kts | 76° |
| 2026-05-05 14:54 | 44.51262 | 26.14928 | 2493 ft | 106 kts | 76° |
| 2026-05-05 14:55 | 44.51470 | 26.15917 | 2495 ft | 106 kts | 76° |
| 2026-05-05 14:55 | 44.51679 | 26.16910 | 2491 ft | 105 kts | 75° |
| 2026-05-05 14:55 | 44.51883 | 26.17878 | 2490 ft | 103 kts | 75° |
| 2026-05-05 14:55 | 44.52096 | 26.18879 | 2497 ft | 112 kts | 76° |
| 2026-05-05 14:56 | 44.52320 | 26.19953 | 2508 ft | 117 kts | 76° |
| 2026-05-05 14:56 | 44.52553 | 26.21064 | 2509 ft | 121 kts | 76° |
| 2026-05-05 14:56 | 44.52790 | 26.22207 | 2510 ft | 123 kts | 76° |
| 2026-05-05 14:56 | 44.53013 | 26.23361 | 2507 ft | 123 kts | 84° |
| 2026-05-05 14:57 | 44.53003 | 26.24541 | 2506 ft | 124 kts | 94° |
| 2026-05-05 14:57 | 44.52969 | 26.25751 | 2508 ft | 125 kts | 94° |
| 2026-05-05 14:57 | 44.52931 | 26.26971 | 2504 ft | 126 kts | 94° |
| 2026-05-05 14:57 | 44.52895 | 26.28197 | 2504 ft | 126 kts | 94° |
| 2026-05-05 14:58 | 44.52861 | 26.29410 | 2504 ft | 124 kts | 94° |
| 2026-05-05 14:58 | 44.52829 | 26.30606 | 2499 ft | 122 kts | 94° |
| 2026-05-05 14:58 | 44.52796 | 26.31806 | 2502 ft | 124 kts | 94° |
| 2026-05-05 14:58 | 44.52763 | 26.33006 | 2497 ft | 122 kts | 95° |
| 2026-05-05 14:59 | 44.52696 | 26.34184 | 2484 ft | 121 kts | 100° |
| 2026-05-05 14:59 | 44.52818 | 26.35336 | 2449 ft | 123 kts | 66° |
| 2026-05-05 14:59 | 44.53455 | 26.36044 | 2450 ft | 121 kts | 19° |
| 2026-05-05 14:59 | 44.54274 | 26.36158 | 2475 ft | 118 kts | 6° |
| 2026-05-05 15:00 | 44.55023 | 26.35763 | 2457 ft | 118 kts | 318° |
| 2026-05-05 15:00 | 44.55283 | 26.35112 | 2457 ft | 116 kts | 285° |
| 2026-05-05 15:00 | 44.55147 | 26.33652 | 2485 ft | 114 kts | 261° |
| 2026-05-05 15:00 | 44.54961 | 26.32571 | 2488 ft | 114 kts | 259° |
| 2026-05-05 15:01 | 44.54778 | 26.31485 | 2483 ft | 112 kts | 259° |
| 2026-05-05 15:01 | 44.54581 | 26.30446 | 2476 ft | 109 kts | 257° |
| 2026-05-05 15:01 | 44.54376 | 26.29422 | 2484 ft | 110 kts | 257° |
| 2026-05-05 15:01 | 44.54168 | 26.28397 | 2484 ft | 109 kts | 257° |
| 2026-05-05 15:02 | 44.53959 | 26.27370 | 2480 ft | 110 kts | 258° |
| 2026-05-05 15:02 | 44.53750 | 26.26332 | 2365 ft | 109 kts | 257° |
| 2026-05-05 15:02 | 44.53530 | 26.25345 | 2223 ft | 106 kts | 256° |
| 2026-05-05 15:02 | 44.53317 | 26.24394 | 2095 ft | 99 kts | 256° |
| 2026-05-05 15:03 | 44.53118 | 26.23478 | 1963 ft | 98 kts | 256° |
| 2026-05-05 15:03 | 44.52927 | 26.22579 | 1832 ft | 94 kts | 256° |
| 2026-05-05 15:03 | 44.52745 | 26.21721 | 1714 ft | 91 kts | 256° |
| 2026-05-05 15:03 | 44.52568 | 26.20880 | 1605 ft | 88 kts | 256° |
| 2026-05-05 15:04 | 44.52393 | 26.20042 | 1474 ft | 88 kts | 255° |
| 2026-05-05 15:04 | 44.52225 | 26.19248 | 1359 ft | 84 kts | 256° |
| 2026-05-05 15:04 | 44.52061 | 26.18462 | 1244 ft | 83 kts | 256° |
| 2026-05-05 15:04 | 44.51902 | 26.17696 | 1130 ft | 81 kts | 256° |
| 2026-05-05 15:05 | 44.51592 | 26.16196 | 922 ft | 81 kts | 257° |
| 2026-05-05 15:05 | 44.51432 | 26.15417 | 809 ft | 84 kts | 259° |
| 2026-05-05 15:05 | 44.51270 | 26.14624 | 691 ft | 84 kts | 258° |
| 2026-05-05 15:06 | 44.51107 | 26.13833 | 581 ft | 86 kts | 258° |
| 2026-05-05 15:06 | 44.50938 | 26.13029 | 484 ft | 83 kts | 256° |
| 2026-05-05 15:06 | 44.50747 | 26.12271 | 365 ft | 84 kts | 256° |
| 2026-05-05 15:06 | 44.50602 | 26.11567 | 311 ft | 60 kts | 255° |
| 2026-05-05 15:07 | 44.50503 | 26.11093 | 305 ft | 57 kts | 251° |
| 2026-05-05 15:07 | 44.50356 | 26.10441 | 377 ft | 79 kts | 253° |
| 2026-05-05 15:07 | 44.50184 | 26.09600 | 397 ft | 93 kts | 254° |
| 2026-05-05 15:07 | 44.50011 | 26.08747 | 514 ft | 94 kts | 255° |
| 2026-05-05 15:08 | 44.49813 | 26.07865 | 627 ft | 95 kts | 255° |
| 2026-05-05 15:08 | 44.49628 | 26.06976 | 747 ft | 95 kts | 255° |
| 2026-05-05 15:08 | 44.49444 | 26.06087 | 862 ft | 95 kts | 254° |
| 2026-05-05 15:08 | 44.49259 | 26.05196 | 993 ft | 95 kts | 253° |
| 2026-05-05 15:09 | 44.49075 | 26.04307 | 1112 ft | 95 kts | 253° |
| 2026-05-05 15:09 | 44.48890 | 26.03415 | 1250 ft | 95 kts | 252° |
| 2026-05-05 15:09 | 44.48706 | 26.02523 | 1401 ft | 95 kts | 252° |
| 2026-05-05 15:09 | 44.48522 | 26.01632 | 1549 ft | 95 kts | 252° |
| 2026-05-05 15:10 | 44.48334 | 26.00722 | 1708 ft | 96 kts | 253° |
| 2026-05-05 15:10 | 44.48156 | 25.99835 | 1781 ft | 95 kts | 252° |
| 2026-05-05 15:10 | 44.47973 | 25.98939 | 1812 ft | 96 kts | 253° |
| 2026-05-05 15:10 | 44.47783 | 25.98032 | 2029 ft | 96 kts | 251° |
| 2026-05-05 15:11 | 44.47597 | 25.97158 | 2323 ft | 95 kts | 251° |
| 2026-05-05 15:11 | 44.47408 | 25.96246 | 2504 ft | 104 kts | 253° |
| 2026-05-05 15:11 | 44.47097 | 25.95277 | 2517 ft | 115 kts | 232° |
| 2026-05-05 15:11 | 44.46580 | 25.94354 | 2506 ft | 125 kts | 232° |
| 2026-05-05 15:12 | 44.46046 | 25.93374 | 2513 ft | 129 kts | 232° |
| 2026-05-05 15:12 | 44.45511 | 25.92384 | 2511 ft | 123 kts | 233° |
| 2026-05-05 15:12 | 44.45005 | 25.91457 | 2497 ft | 118 kts | 233° |
| 2026-05-05 15:12 | 44.44508 | 25.90561 | 2497 ft | 115 kts | 232° |
| 2026-05-05 15:13 | 44.44034 | 25.89661 | 2487 ft | 115 kts | 241° |
| 2026-05-05 15:13 | 44.44085 | 25.88594 | 2494 ft | 118 kts | 305° |
| 2026-05-05 15:13 | 44.44808 | 25.88177 | 2496 ft | 121 kts | 8° |
| 2026-05-05 15:13 | 44.45436 | 25.88886 | 2508 ft | 121 kts | 69° |
| 2026-05-05 15:14 | 44.45710 | 25.90009 | 2505 ft | 122 kts | 73° |
| 2026-05-05 15:14 | 44.45963 | 25.91136 | 2505 ft | 122 kts | 76° |
| 2026-05-05 15:14 | 44.46214 | 25.92290 | 2508 ft | 128 kts | 75° |
| 2026-05-05 15:14 | 44.46478 | 25.93501 | 2506 ft | 132 kts | 75° |
| 2026-05-05 15:15 | 44.46745 | 25.94712 | 2512 ft | 129 kts | 75° |
| 2026-05-05 15:15 | 44.47013 | 25.95925 | 2513 ft | 131 kts | 76° |
| 2026-05-05 15:15 | 44.47280 | 25.97140 | 2505 ft | 130 kts | 74° |
| 2026-05-05 15:15 | 44.47547 | 25.98344 | 2505 ft | 130 kts | 75° |
| 2026-05-05 15:16 | 44.47812 | 25.99548 | 2498 ft | 128 kts | 75° |
| 2026-05-05 15:16 | 44.48071 | 26.00723 | 2497 ft | 129 kts | 75° |
| 2026-05-05 15:16 | 44.48336 | 26.01921 | 2502 ft | 129 kts | 75° |
| 2026-05-05 15:16 | 44.48601 | 26.03129 | 2504 ft | 131 kts | 75° |
| 2026-05-05 15:17 | 44.48867 | 26.04337 | 2504 ft | 130 kts | 75° |
| 2026-05-05 15:17 | 44.49133 | 26.05546 | 2504 ft | 130 kts | 75° |
| 2026-05-05 15:17 | 44.49400 | 26.06763 | 2497 ft | 131 kts | 75° |
| 2026-05-05 15:17 | 44.49664 | 26.07966 | 2504 ft | 129 kts | 75° |
| 2026-05-05 15:18 | 44.49927 | 26.09166 | 2501 ft | 129 kts | 75° |
| 2026-05-05 15:18 | 44.50192 | 26.10370 | 2501 ft | 130 kts | 75° |
| 2026-05-05 15:18 | 44.50458 | 26.11584 | 2502 ft | 131 kts | 75° |
| 2026-05-05 15:18 | 44.50724 | 26.12805 | 2501 ft | 131 kts | 75° |
| 2026-05-05 15:19 | 44.50992 | 26.14020 | 2505 ft | 130 kts | 75° |
| 2026-05-05 15:19 | 44.51256 | 26.15224 | 2506 ft | 128 kts | 75° |
| 2026-05-05 15:19 | 44.51515 | 26.16407 | 2501 ft | 129 kts | 75° |
| 2026-05-05 15:19 | 44.51775 | 26.17597 | 2497 ft | 127 kts | 74° |
| 2026-05-05 15:20 | 44.52034 | 26.18776 | 2495 ft | 127 kts | 75° |
| 2026-05-05 15:20 | 44.52291 | 26.19952 | 2492 ft | 124 kts | 75° |
| 2026-05-05 15:20 | 44.52533 | 26.21075 | 2489 ft | 118 kts | 75° |
| 2026-05-05 15:20 | 44.52771 | 26.22166 | 2498 ft | 116 kts | 74° |
| 2026-05-05 15:21 | 44.52896 | 26.23254 | 2496 ft | 113 kts | 95° |
| 2026-05-05 15:21 | 44.52864 | 26.24363 | 2494 ft | 115 kts | 94° |
| 2026-05-05 15:21 | 44.52838 | 26.25483 | 2498 ft | 116 kts | 94° |
| 2026-05-05 15:21 | 44.52809 | 26.26590 | 2496 ft | 114 kts | 94° |
| 2026-05-05 15:22 | 44.52778 | 26.27706 | 2487 ft | 114 kts | 95° |
| 2026-05-05 15:22 | 44.52753 | 26.28790 | 2487 ft | 109 kts | 94° |
| 2026-05-05 15:22 | 44.52727 | 26.29848 | 2489 ft | 108 kts | 94° |
| 2026-05-05 15:22 | 44.52701 | 26.30890 | 2492 ft | 106 kts | 94° |
| 2026-05-05 15:23 | 44.52675 | 26.31927 | 2492 ft | 107 kts | 94° |
| 2026-05-05 15:23 | 44.52767 | 26.32945 | 2485 ft | 107 kts | 58° |
| 2026-05-05 15:23 | 44.53400 | 26.33460 | 2495 ft | 108 kts | 17° |
| 2026-05-05 15:23 | 44.54134 | 26.33691 | 2491 ft | 108 kts | 13° |
| 2026-05-05 15:24 | 44.54829 | 26.33525 | 2488 ft | 105 kts | 316° |
| 2026-05-05 15:24 | 44.54947 | 26.32615 | 2492 ft | 95 kts | 247° |
| 2026-05-05 15:24 | 44.54754 | 26.31739 | 2496 ft | 96 kts | 252° |
| 2026-05-05 15:24 | 44.54565 | 26.30857 | 2496 ft | 94 kts | 252° |
| 2026-05-05 15:25 | 44.54382 | 26.29962 | 2504 ft | 97 kts | 253° |
| 2026-05-05 15:25 | 44.54192 | 26.29044 | 2507 ft | 98 kts | 252° |
| 2026-05-05 15:25 | 44.54006 | 26.28127 | 2511 ft | 98 kts | 253° |
| 2026-05-05 15:25 | 44.53813 | 26.27199 | 2476 ft | 101 kts | 253° |
| 2026-05-05 15:26 | 44.53613 | 26.26228 | 2352 ft | 106 kts | 254° |
| 2026-05-05 15:26 | 44.53405 | 26.25208 | 2206 ft | 110 kts | 253° |
| 2026-05-05 15:26 | 44.53196 | 26.24185 | 2071 ft | 108 kts | 253° |
| 2026-05-05 15:26 | 44.52985 | 26.23172 | 1925 ft | 104 kts | 252° |
| 2026-05-05 15:27 | 44.52789 | 26.22226 | 1789 ft | 98 kts | 252° |
| 2026-05-05 15:27 | 44.52595 | 26.21300 | 1652 ft | 101 kts | 252° |
| 2026-05-05 15:27 | 44.52404 | 26.20355 | 1520 ft | 104 kts | 252° |
| 2026-05-05 15:27 | 44.52203 | 26.19379 | 1386 ft | 104 kts | 252° |
| 2026-05-05 15:28 | 44.51999 | 26.18398 | 1241 ft | 105 kts | 253° |
| 2026-05-05 15:28 | 44.51809 | 26.17447 | 1100 ft | 96 kts | 253° |
| 2026-05-05 15:28 | 44.51626 | 26.16579 | 973 ft | 91 kts | 253° |
| 2026-05-05 15:28 | 44.51454 | 26.15735 | 854 ft | 90 kts | 252° |
| 2026-05-05 15:29 | 44.51283 | 26.14898 | 732 ft | 88 kts | 254° |
| 2026-05-05 15:29 | 44.51113 | 26.14095 | 622 ft | 84 kts | 253° |
| 2026-05-05 15:29 | 44.50947 | 26.13324 | 523 ft | 83 kts | 254° |
| 2026-05-05 15:29 | 44.50789 | 26.12548 | 403 ft | 83 kts | 256° |
| 2026-05-05 15:30 | 44.50639 | 26.11793 | 311 ft | 72 kts | 255° |
| 2026-05-05 15:30 | 44.50535 | 26.11247 | 304 ft | 47 kts | 252° |
| 2026-05-05 15:30 | 44.50451 | 26.10850 | 304 ft | 39 kts | 251° |
| 2026-05-05 15:30 | 44.50378 | 26.10497 | 304 ft | 36 kts | 255° |
| 2026-05-05 15:31 | 44.50293 | 26.10432 | 304 ft | 13 kts | 164° |
| 2026-05-05 15:31 | 44.50191 | 26.10444 | 303 ft | 17 kts | 213° |
| 2026-05-05 15:31 | 44.50145 | 26.10289 | 304 ft | 19 kts | 252° |
| 2026-05-05 15:31 | 44.50106 | 26.10094 | 305 ft | 23 kts | 251° |
| 2026-05-05 15:32 | 44.50056 | 26.09865 | 303 ft | 27 kts | 254° |
| 2026-05-05 15:32 | 44.50002 | 26.09601 | 302 ft | 30 kts | 254° |
| 2026-05-05 15:32 | 44.49941 | 26.09311 | 302 ft | 32 kts | 254° |
| 2026-05-05 15:32 | 44.49879 | 26.09015 | 304 ft | 31 kts | 255° |
| 2026-05-05 15:33 | 44.49823 | 26.08745 | 302 ft | 27 kts | 255° |
| 2026-05-05 15:33 | 44.49778 | 26.08533 | 304 ft | 17 kts | 255° |
| 2026-05-05 15:33 | 44.49718 | 26.08443 | 302 ft | 13 kts | 191° |
| 2026-05-05 15:33 | 44.49675 | 26.08380 | 302 ft | 7 kts | 219° |
| 2026-05-05 15:34 | 44.49645 | 26.08362 | 302 ft | 3 kts | 298° |
| 2026-05-05 15:34 | 44.49656 | 26.08358 | 304 ft | 1 kts | 24° |
| 2026-05-05 15:34 | 44.49661 | 26.08365 | 303 ft | 0 kts | 50° |